Time;durP1;ratioP1;P1;durP2;ratioP2;P2;SDS_P1;SDS_P2;PMS_P1;PMS_P2;Temp;Humidity;BMP_temperature;BMP_pressure;BME280_temperature;BME280_humidity;BME280_pressure;Samples;Min_cycle;Max_cycle;Signal;HPM_P1;HPM_P2
2021/04/11 00:00:38;;;;;;;22.40;14.02;;;;;;;-143.98;100.00;68091.63;5077204;28;20056;-90
2021/04/11 00:03:06;;;;;;;26.38;14.70;;;;;;;-143.98;100.00;68091.63;5076633;28;20056;-89
2021/04/11 00:05:36;;;;;;;20.90;14.18;;;;;;;-143.98;100.00;68091.63;5076733;28;20377;-89
2021/04/11 00:08:04;;;;;;;22.98;15.35;;;;;;;-143.98;100.00;68091.63;5079351;28;20056;-89
2021/04/11 00:10:36;;;;;;;29.38;15.55;;;;;;;-143.98;100.00;68091.63;5059807;28;20052;-88
2021/04/11 00:13:04;;;;;;;26.70;14.70;;;;;;;-143.98;100.00;68091.63;5061722;28;20090;-88
2021/04/11 00:15:32;;;;;;;24.85;15.38;;;;;;;-143.98;100.00;68091.63;5061954;28;20060;-89
2021/04/11 00:17:58;;;;;;;24.05;16.20;;;;;;;-143.98;100.00;68091.63;5076607;28;20059;-89
2021/04/11 00:20:25;;;;;;;28.05;16.23;;;;;;;-143.98;100.00;68091.63;5074092;28;20057;-89
2021/04/11 00:22:51;;;;;;;26.63;15.95;;;;;;;-143.98;100.00;68091.63;5059350;28;20048;-87
2021/04/11 00:25:24;;;;;;;26.20;17.23;;;;;;;-143.98;100.00;68091.63;5077579;28;20137;-89
2021/04/11 00:27:51;;;;;;;25.80;18.27;;;;;;;-143.98;100.00;68091.63;5092998;28;20067;-90
2021/04/11 00:30:18;;;;;;;33.80;19.02;;;;;;;-143.98;100.00;68091.63;5093161;28;20111;-90
2021/04/11 00:32:49;;;;;;;30.13;19.23;;;;;;;-143.98;100.00;68091.63;5110158;28;20056;-90
2021/04/11 00:35:17;;;;;;;29.63;20.23;;;;;;;-143.98;100.00;68091.63;5092908;28;20115;-86
2021/04/11 00:37:48;;;;;;;27.40;18.75;;;;;;;-143.98;100.00;68091.63;5092406;28;20052;-86
2021/04/11 00:40:19;;;;;;;30.73;18.75;;;;;;;-143.98;100.00;68091.63;5083283;28;20131;-89
2021/04/11 00:42:48;;;;;;;30.15;19.60;;;;;;;-143.98;100.00;68091.63;5099207;28;20060;-88
2021/04/11 00:45:30;;;;;;;32.75;21.15;;;;;;;-143.98;100.00;68091.63;5110099;28;20066;-88
2021/04/11 00:48:06;;;;;;;37.10;22.60;;;;;;;-143.98;100.00;68091.63;5105461;28;20063;-88
2021/04/11 00:50:32;;;;;;;37.38;24.10;;;;;;;-143.98;100.00;68091.63;5082399;28;20052;-88
2021/04/11 00:52:59;;;;;;;38.50;23.75;;;;;;;-143.98;100.00;68091.63;5097569;28;20082;-88
2021/04/11 00:55:29;;;;;;;39.13;25.83;;;;;;;-143.98;100.00;68091.63;5080061;28;20062;-89
2021/04/11 00:57:58;;;;;;;38.25;25.15;;;;;;;-143.98;100.00;68091.63;5097193;28;20063;-89
2021/04/11 01:00:35;;;;;;;45.92;28.55;;;;;;;-143.98;100.00;68091.63;5097719;28;20052;-88
2021/04/11 01:03:04;;;;;;;49.33;28.85;;;;;;;-143.98;100.00;68091.63;5080649;28;20049;-88
2021/04/11 01:05:35;;;;;;;45.05;28.75;;;;;;;-143.98;100.00;68091.63;5100511;28;20519;-90
2021/04/11 01:08:10;;;;;;;51.95;31.52;;;;;;;-143.98;100.00;68091.63;5085939;28;20056;-90
2021/04/11 01:11:04;;;;;;;52.17;32.28;;;;;;;-143.98;100.00;68091.63;5081335;28;20056;-89
2021/04/11 01:13:32;;;;;;;57.92;35.38;;;;;;;-143.98;100.00;68091.63;5073671;28;20080;-90
2021/04/11 01:16:01;;;;;;;55.97;34.88;;;;;;;-143.98;100.00;68091.63;5081018;28;20442;-89
2021/04/11 01:18:31;;;;;;;55.45;35.38;;;;;;;-143.98;100.00;68091.63;5079894;28;20085;-89
2021/04/11 01:21:03;;;;;;;56.92;35.72;;;;;;;-143.98;100.00;68091.63;5079651;28;20442;-90
2021/04/11 01:23:48;;;;;;;61.70;37.58;;;;;;;-143.98;100.00;68091.63;5081168;28;20094;-89
2021/04/11 01:26:17;;;;;;;68.20;39.10;;;;;;;-143.98;100.00;68091.63;5083145;28;20419;-86
2021/04/11 01:28:44;;;;;;;66.18;41.30;;;;;;;-143.98;100.00;68091.63;5083799;28;20054;-85
2021/04/11 01:31:11;;;;;;;65.78;40.35;;;;;;;-143.98;100.00;68091.63;5100577;28;20056;-84
2021/04/11 01:33:42;;;;;;;65.93;40.88;;;;;;;-143.98;100.00;68091.63;5099567;28;20055;-84
2021/04/11 01:36:13;;;;;;;69.15;43.15;;;;;;;-143.98;100.00;68091.63;5084280;28;20052;-84
2021/04/11 01:38:41;;;;;;;71.82;42.28;;;;;;;-143.98;100.00;68091.63;5084456;28;20055;-84
2021/04/11 01:41:35;;;;;;;71.40;43.50;;;;;;;-143.98;100.00;68091.63;5088305;28;20051;-84
2021/04/11 01:44:25;;;;;;;70.82;43.30;;;;;;;-143.98;100.00;68091.63;5113237;28;20051;-85
2021/04/11 01:46:52;;;;;;;71.47;43.03;;;;;;;-143.98;100.00;68091.63;5110685;28;20338;-86
2021/04/11 01:49:20;;;;;;;71.43;44.33;;;;;;;-143.98;100.00;68091.63;5082474;28;20146;-86
2021/04/11 01:52:00;;;;;;;79.97;46.45;;;;;;;-143.98;100.00;68091.63;5100320;28;20090;-86
2021/04/11 01:54:30;;;;;;;76.05;45.55;;;;;;;-143.98;100.00;68091.63;5083519;28;20423;-87
2021/04/11 01:57:00;;;;;;;78.32;47.45;;;;;;;-143.98;100.00;68091.63;5083730;28;20051;-87
2021/04/11 01:59:32;;;;;;;82.68;48.05;;;;;;;-143.98;100.00;68091.63;5101078;28;20138;-87
2021/04/11 02:01:58;;;;;;;78.68;48.03;;;;;;;-143.98;100.00;68091.63;5082962;28;20063;-88
2021/04/11 02:04:25;;;;;;;78.75;46.92;;;;;;;-143.98;100.00;68091.63;5081261;28;20089;-88
2021/04/11 02:10:48;;;;;;;84.97;50.60;;;;;;;-143.98;100.00;68091.63;5079244;28;20290;-87
2021/04/11 02:17:49;;;;;;;78.03;47.30;;;;;;;-143.98;100.00;68091.63;5117921;28;20402;-87
2021/04/11 02:20:25;;;;;;;88.43;51.00;;;;;;;-143.98;100.00;68091.63;5084020;28;20055;-87
2021/04/11 02:23:12;;;;;;;78.75;49.38;;;;;;;-143.98;100.00;68091.63;5100271;28;20123;-87
2021/04/11 02:29:29;;;;;;;75.97;47.72;;;;;;;-143.98;100.00;68091.63;5096051;28;20063;-86
2021/04/11 02:35:48;;;;;;;80.75;48.78;;;;;;;-143.98;100.00;68091.63;5085373;28;20048;-86
2021/04/11 02:38:16;;;;;;;74.03;47.65;;;;;;;-143.98;100.00;68091.63;5093629;28;20424;-86
2021/04/11 02:40:46;;;;;;;80.32;48.53;;;;;;;-143.98;100.00;68091.63;5078478;28;20123;-86
2021/04/11 02:43:14;;;;;;;76.57;47.08;;;;;;;-143.98;100.00;68091.63;5095169;28;20067;-86
2021/04/11 02:45:49;;;;;;;72.88;42.80;;;;;;;-143.98;100.00;68091.63;5095913;28;20052;-86
2021/04/11 02:48:16;;;;;;;77.97;45.85;;;;;;;-143.98;100.00;68091.63;5078341;28;20099;-86
2021/04/11 02:50:43;;;;;;;80.15;49.30;;;;;;;-143.98;100.00;68091.63;5078745;28;20303;-86
2021/04/11 02:53:14;;;;;;;77.90;47.10;;;;;;;-143.98;100.00;68091.63;5111323;28;20135;-86
2021/04/11 02:55:41;;;;;;;89.25;52.28;;;;;;;-143.98;100.00;68091.63;5093104;28;20408;-86
2021/04/11 02:58:13;;;;;;;75.55;48.20;;;;;;;-143.98;100.00;68091.63;5078176;28;20059;-86
2021/04/11 03:00:45;;;;;;;77.80;48.03;;;;;;;-143.98;100.00;68091.63;5079072;28;20354;-84
2021/04/11 03:03:11;;;;;;;79.97;47.25;;;;;;;-143.98;100.00;68091.63;5095642;28;20113;-85
2021/04/11 03:05:38;;;;;;;81.53;47.10;;;;;;;-143.98;100.00;68091.63;5094514;28;20419;-86
2021/04/11 03:08:07;;;;;;;79.28;47.25;;;;;;;-143.98;100.00;68091.63;5078269;28;20158;-86
2021/04/11 03:10:44;;;;;;;80.70;47.38;;;;;;;-143.98;100.00;68091.63;5079190;28;20428;-85
2021/04/11 03:13:11;;;;;;;74.15;43.67;;;;;;;-143.98;100.00;68091.63;5095058;28;20048;-85
2021/04/11 03:15:38;;;;;;;75.65;44.88;;;;;;;-143.98;100.00;68091.63;5094575;28;20312;-86
2021/04/11 03:18:05;;;;;;;71.13;45.22;;;;;;;-143.98;100.00;68091.63;5098092;28;20427;-87
2021/04/11 03:20:41;;;;;;;74.28;45.63;;;;;;;-143.98;100.00;68091.63;5098924;28;20801;-87
2021/04/11 03:23:12;;;;;;;71.80;44.45;;;;;;;-143.98;100.00;68091.63;5083964;28;20048;-85
2021/04/11 03:25:43;;;;;;;77.40;46.60;;;;;;;-143.98;100.00;68091.63;5108326;28;20060;-86
2021/04/11 03:28:33;;;;;;;78.10;45.15;;;;;;;-143.98;100.00;68091.63;5085150;28;20281;-87
2021/04/11 03:31:37;;;;;;;72.75;44.72;;;;;;;-143.98;100.00;68091.63;5102559;28;20070;-87
2021/04/11 03:34:12;;;;;;;70.95;43.75;;;;;;;-143.98;100.00;68091.63;5099287;28;20158;-87
2021/04/11 03:36:52;;;;;;;69.57;42.30;;;;;;;-143.98;100.00;68091.63;5098321;28;20052;-87
2021/04/11 03:39:38;;;;;;;72.88;44.55;;;;;;;-143.98;100.00;68091.63;5099687;28;20056;-87
2021/04/11 03:42:26;;;;;;;75.72;45.53;;;;;;;-143.98;100.00;68091.63;5097976;28;20052;-86
2021/04/11 03:45:00;;;;;;;71.20;41.70;;;;;;;-143.98;100.00;68091.63;5085379;28;20335;-86
2021/04/11 03:47:40;;;;;;;76.18;45.42;;;;;;;-143.98;100.00;68091.63;5081938;28;20060;-86
2021/04/11 03:50:28;;;;;;;73.10;45.05;;;;;;;-143.98;100.00;68091.63;5080876;28;20134;-84
2021/04/11 03:53:13;;;;;;;80.28;44.90;;;;;;;-143.98;100.00;68091.63;5080487;28;20113;-83
2021/04/11 03:55:42;;;;;;;71.20;42.47;;;;;;;-143.98;100.00;68091.63;5097743;28;20311;-83
2021/04/11 03:58:20;;;;;;;77.03;45.22;;;;;;;-143.98;100.00;68091.63;5103027;28;20056;-86
2021/04/11 04:00:50;;;;;;;76.97;44.83;;;;;;;-143.98;100.00;68091.63;5098365;28;20079;-87
2021/04/11 04:03:20;;;;;;;81.50;45.55;;;;;;;-143.98;100.00;68091.63;5094626;28;20071;-87
2021/04/11 04:05:51;;;;;;;73.65;44.05;;;;;;;-143.98;100.00;68091.63;5094649;28;20052;-89
2021/04/11 04:08:18;;;;;;;70.85;43.30;;;;;;;-143.98;100.00;68091.63;5095963;28;20067;-91
2021/04/11 04:11:09;;;;;;;77.20;43.63;;;;;;;-143.98;100.00;68091.63;5091754;28;20084;-91
2021/04/11 04:14:10;;;;;;;83.60;45.50;;;;;;;-143.98;100.00;68091.63;5116409;28;20073;-90
2021/04/11 04:17:05;;;;;;;77.63;44.00;;;;;;;-143.98;100.00;68091.63;5110698;28;20056;-91
2021/04/11 04:19:49;;;;;;;71.18;41.90;;;;;;;-143.98;100.00;68091.63;5103475;28;20131;-91
2021/04/11 04:22:15;;;;;;;75.22;44.38;;;;;;;-143.98;100.00;68091.63;5102875;28;20056;-90
2021/04/11 04:24:50;;;;;;;80.45;46.33;;;;;;;-143.98;100.00;68091.63;5111866;28;20075;-89
2021/04/11 04:27:58;;;;;;;78.40;44.30;;;;;;;-143.98;100.00;68091.63;5099890;28;20058;-91
2021/04/11 04:30:53;;;;;;;74.18;43.72;;;;;;;-143.98;100.00;68091.63;5085998;28;20047;-90
2021/04/11 04:33:22;;;;;;;81.07;45.67;;;;;;;-143.98;100.00;68091.63;5107092;28;20139;-90
2021/04/11 04:36:02;;;;;;;75.70;42.90;;;;;;;-143.98;100.00;68091.63;5121961;28;20066;-91
2021/04/11 04:38:51;;;;;;;75.53;42.63;;;;;;;-143.98;100.00;68091.63;5110696;28;20077;-91
2021/04/11 04:41:40;;;;;;;76.55;41.58;;;;;;;-143.98;100.00;68091.63;5113250;28;20047;-91
2021/04/11 04:44:21;;;;;;;74.40;43.35;;;;;;;-143.98;100.00;68091.63;5099007;28;20048;-90
2021/04/11 04:46:55;;;;;;;73.15;42.90;;;;;;;-143.98;100.00;68091.63;5107751;28;20066;-90
2021/04/11 04:50:03;;;;;;;82.28;45.58;;;;;;;-143.98;100.00;68091.63;5103903;28;20086;-89
2021/04/11 04:52:31;;;;;;;76.50;42.50;;;;;;;-143.98;100.00;68091.63;5035100;28;20496;-88
2021/04/11 04:55:20;;;;;;;72.25;41.72;;;;;;;-143.98;100.00;68091.63;5074453;28;20048;-88
2021/04/11 04:58:02;;;;;;;73.63;41.45;;;;;;;-143.98;100.00;68091.63;5084442;28;20059;-89
2021/04/11 05:00:34;;;;;;;77.55;41.33;;;;;;;-143.98;100.00;68091.63;5083870;28;20198;-89
2021/04/11 05:03:05;;;;;;;72.22;40.30;;;;;;;-143.98;100.00;68091.63;5085749;28;20052;-90
2021/04/11 05:05:34;;;;;;;73.70;43.13;;;;;;;-143.98;100.00;68091.63;5086875;28;20150;-90
2021/04/11 05:08:09;;;;;;;71.80;41.33;;;;;;;-143.98;100.00;68091.63;5084291;28;20055;-88
2021/04/11 05:10:52;;;;;;;76.38;42.08;;;;;;;-143.98;100.00;68091.63;5084928;28;20446;-87
2021/04/11 05:16:25;;;;;;;73.32;40.88;;;;;;;-143.98;100.00;68091.63;5097124;28;20059;-87
2021/04/11 05:19:14;;;;;;;68.75;40.05;;;;;;;-143.98;100.00;68091.63;5101203;28;20199;-90
2021/04/11 05:21:44;;;;;;;70.50;40.05;;;;;;;-143.98;100.00;68091.63;5119086;28;20059;-88
2021/04/11 05:24:14;;;;;;;62.85;37.55;;;;;;;-143.98;100.00;68091.63;5083767;28;20064;-88
2021/04/11 05:26:52;;;;;;;65.25;38.65;;;;;;;-143.98;100.00;68091.63;5084923;28;20043;-88
2021/04/11 05:29:22;;;;;;;63.90;36.70;;;;;;;-143.98;100.00;68091.63;5085351;28;20047;-89
2021/04/11 05:31:53;;;;;;;61.25;37.28;;;;;;;-143.98;100.00;68091.63;5104236;28;20051;-90
2021/04/11 05:34:21;;;;;;;65.47;38.63;;;;;;;-143.98;100.00;68091.63;5087917;28;20318;-91
2021/04/11 05:37:00;;;;;;;64.20;39.03;;;;;;;-143.98;100.00;68091.63;5085301;28;20073;-90
2021/04/11 05:39:33;;;;;;;61.05;38.00;;;;;;;-143.98;100.00;68091.63;5085503;28;20150;-90
2021/04/11 05:42:26;;;;;;;65.18;37.58;;;;;;;-143.98;100.00;68091.63;5100880;28;20116;-91
2021/04/11 05:44:56;;;;;;;64.70;36.95;;;;;;;-143.98;100.00;68091.63;5098666;28;20066;-90
2021/04/11 05:47:55;;;;;;;55.35;35.65;;;;;;;-143.98;100.00;68091.63;5107700;28;20040;-91
2021/04/11 05:50:34;;;;;;;77.07;35.08;;;;;;;-143.98;100.00;68091.63;5115365;27;20070;-90
2021/04/11 05:53:20;;;;;;;56.20;33.72;;;;;;;-143.98;100.00;68091.63;5093202;28;20052;-91
2021/04/11 05:55:53;;;;;;;56.67;34.40;;;;;;;-143.98;100.00;68091.63;5111781;28;20050;-90
2021/04/11 05:58:22;;;;;;;56.42;33.05;;;;;;;-143.98;100.00;68091.63;5086034;28;20055;-89
2021/04/11 06:00:54;;;;;;;45.65;30.83;;;;;;;-143.98;100.00;68091.63;5081374;28;20067;-89
2021/04/11 06:03:24;;;;;;;47.58;30.17;;;;;;;-143.98;100.00;68091.63;5097456;28;20425;-88
2021/04/11 06:06:09;;;;;;;48.08;29.73;;;;;;;-143.98;100.00;68091.63;5081124;28;20116;-89
2021/04/11 06:09:01;;;;;;;50.58;30.85;;;;;;;-143.98;100.00;68091.63;5099124;28;20067;-89
2021/04/11 06:11:39;;;;;;;45.80;28.45;;;;;;;-143.98;100.00;68091.63;5081941;28;20051;-90
2021/04/11 06:14:22;;;;;;;87.20;29.80;;;;;;;-143.98;100.00;68091.63;5084764;28;20063;-89
2021/04/11 06:16:49;;;;;;;41.80;26.58;;;;;;;-143.98;100.00;68091.63;5082919;28;20070;-89
2021/04/11 06:19:20;;;;;;;42.67;27.75;;;;;;;-143.98;100.00;68091.63;5081903;28;20339;-90
2021/04/11 06:22:11;;;;;;;41.00;28.33;;;;;;;-143.98;100.00;68091.63;5085765;28;20078;-90
2021/04/11 06:25:19;;;;;;;40.00;27.05;;;;;;;-143.98;100.00;68091.63;5095747;28;20062;-90
2021/04/11 06:27:57;;;;;;;42.30;26.70;;;;;;;-143.98;100.00;68091.63;5097505;28;20121;-91
2021/04/11 06:30:27;;;;;;;41.20;25.45;;;;;;;-143.98;100.00;68091.63;5081598;28;20090;-91
2021/04/11 06:33:00;;;;;;;38.38;25.75;;;;;;;-143.98;100.00;68091.63;5081196;28;20068;-90
2021/04/11 06:35:35;;;;;;;36.85;25.67;;;;;;;-143.98;100.00;68091.63;5078428;28;20056;-89
2021/04/11 06:38:02;;;;;;;28.60;20.20;;;;;;;-143.98;100.00;68091.63;5076223;28;20062;-88
2021/04/11 06:41:00;;;;;;;28.60;21.05;;;;;;;-143.98;100.00;68091.63;5077552;28;20150;-87
2021/04/11 06:43:55;;;;;;;27.77;18.50;;;;;;;-143.98;100.00;68091.63;5101282;28;20113;-87
2021/04/11 06:46:53;;;;;;;24.80;16.90;;;;;;;-143.98;100.00;68091.63;5100622;28;20072;-87
2021/04/11 06:49:56;;;;;;;19.35;13.40;;;;;;;-143.98;100.00;68091.63;5097725;28;20059;-88
2021/04/11 06:53:04;;;;;;;19.83;14.88;;;;;;;-143.98;100.00;68091.63;5095374;28;20062;-88
2021/04/11 06:55:52;;;;;;;25.02;17.42;;;;;;;-143.98;100.00;68091.63;5064950;28;20060;-88
2021/04/11 06:58:45;;;;;;;25.70;17.98;;;;;;;-143.98;100.00;68091.63;5098860;28;20060;-87
2021/04/11 07:01:54;;;;;;;25.63;17.85;;;;;;;-143.98;100.00;68091.63;5096246;28;20060;-85
2021/04/11 07:04:29;;;;;;;24.83;17.17;;;;;;;-143.98;100.00;68091.63;5096659;28;20052;-84
2021/04/11 07:07:23;;;;;;;30.10;20.35;;;;;;;-143.98;100.00;68091.63;5096997;28;20048;-84
2021/04/11 07:10:26;;;;;;;27.73;18.75;;;;;;;-143.98;100.00;68091.63;5092572;28;20416;-84
2021/04/11 07:13:20;;;;;;;29.70;19.60;;;;;;;-143.98;100.00;68091.63;5093486;28;20056;-83
2021/04/11 07:16:12;;;;;;;23.95;16.88;;;;;;;-143.98;100.00;68091.63;5094435;28;20052;-83
2021/04/11 07:19:00;;;;;;;19.92;14.50;;;;;;;-143.98;100.00;68091.63;5085679;28;20048;-82
2021/04/11 07:21:46;;;;;;;19.17;13.18;;;;;;;-143.98;100.00;68091.63;5093566;28;20056;-83
2021/04/11 07:24:37;;;;;;;17.40;11.77;;;;;;;-143.98;100.00;68091.63;5095847;28;20312;-82
2021/04/11 07:27:31;;;;;;;13.13;9.80;;;;;;;-143.98;100.00;68091.63;5102744;28;20136;-82
2021/04/11 07:30:33;;;;;;;11.98;9.50;;;;;;;-143.98;100.00;68091.63;5106280;28;20062;-83
2021/04/11 07:33:47;;;;;;;12.50;9.27;;;;;;;-143.98;100.00;68091.63;5117217;28;20098;-81
2021/04/11 07:37:01;;;;;;;12.50;9.48;;;;;;;-143.98;100.00;68091.63;5108336;28;20063;-81
2021/04/11 07:39:40;;;;;;;18.13;10.80;;;;;;;-143.98;100.00;68091.63;5098374;28;20048;-83
2021/04/11 07:43:12;;;;;;;14.32;10.68;;;;;;;-143.98;100.00;68091.63;5106368;28;20056;-81
2021/04/11 07:45:57;;;;;;;23.42;8.85;;;;;;;-143.98;100.00;68091.63;5019174;28;20119;-81
2021/04/11 07:48:51;;;;;;;11.90;9.10;;;;;;;-143.98;100.00;68091.63;5114457;28;20078;-81
2021/04/11 07:51:20;;;;;;;12.55;9.93;;;;;;;-143.98;100.00;68091.63;5096303;28;20119;-81
2021/04/11 07:54:24;;;;;;;18.17;10.60;;;;;;;-143.98;100.00;68091.63;5115755;28;20291;-81
2021/04/11 07:57:11;;;;;;;13.63;10.43;;;;;;;-143.98;100.00;68091.63;5120320;28;20265;-81
2021/04/11 07:59:51;;;;;;;;;;;;;;;-143.98;100.00;68091.63;5125316;28;20052;-81
2021/04/11 08:02:32;;;;;;;15.90;9.80;;;;;;;-143.98;100.00;68091.63;5102454;28;20304;-81
2021/04/11 08:05:07;;;;;;;12.30;9.45;;;;;;;-143.98;100.00;68091.63;5123703;28;20060;-81
2021/04/11 08:07:40;;;;;;;13.75;9.55;;;;;;;-143.98;100.00;68091.63;5102487;28;20058;-81
2021/04/11 08:10:37;;;;;;;13.00;10.00;;;;;;;-143.98;100.00;68091.63;5115409;28;20152;-81
2021/04/11 08:13:40;;;;;;;12.43;9.27;;;;;;;-143.98;100.00;68091.63;5116842;28;20047;-81
2021/04/11 08:16:30;;;;;;;11.93;9.35;;;;;;;-143.98;100.00;68091.63;5118105;28;20091;-81
2021/04/11 08:19:12;;;;;;;8.93;7.45;;;;;;;-143.98;100.00;68091.63;5099593;28;20073;-81
2021/04/11 08:21:55;;;;;;;9.45;7.32;;;;;;;-143.98;100.00;68091.63;5118160;28;20055;-80
2021/04/11 08:24:49;;;;;;;10.80;6.65;;;;;;;-143.98;100.00;68091.63;5095797;28;20066;-80
2021/04/11 08:27:37;;;;;;;9.90;6.15;;;;;;;-143.98;100.00;68091.63;5081601;28;20063;-81
2021/04/11 08:30:24;;;;;;;14.85;6.78;;;;;;;-143.98;100.00;68091.63;5079407;28;20124;-81
2021/04/11 08:33:02;;;;;;;10.43;6.82;;;;;;;-143.98;100.00;68091.63;5094362;28;20083;-81
2021/04/11 08:36:13;;;;;;;10.15;6.85;;;;;;;-143.98;100.00;68091.63;5094865;28;20056;-82
2021/04/11 08:38:49;;;;;;;;;;;;;;;-143.98;100.00;68091.63;5094085;28;20099;-80
2021/04/11 08:41:34;;;;;;;8.77;5.85;;;;;;;-143.98;100.00;68091.63;5092616;28;20266;-80
2021/04/11 08:44:32;;;;;;;9.40;6.45;;;;;;;-143.98;100.00;68091.63;5095690;28;20052;-80
2021/04/11 08:47:23;;;;;;;9.25;6.10;;;;;;;-143.98;100.00;68091.63;5050415;28;20432;-80
2021/04/11 08:49:51;;;;;;;10.15;5.50;;;;;;;-143.98;100.00;68091.63;5101859;28;20189;-80
2021/04/11 08:52:43;;;;;;;5.82;4.65;;;;;;;-143.98;100.00;68091.63;5106168;28;20056;-80
2021/04/11 08:55:36;;;;;;;9.88;6.18;;;;;;;-143.98;100.00;68091.63;5096749;28;20147;-80
2021/04/11 08:58:09;;;;;;;7.72;5.22;;;;;;;-143.98;100.00;68091.63;5094164;28;20439;-80
2021/04/11 09:01:11;;;;;;;8.50;5.82;;;;;;;-143.98;100.00;68091.63;5092785;28;20262;-79
2021/04/11 09:04:06;;;;;;;7.75;3.85;;;;;;;-143.98;100.00;68091.63;5095288;28;20443;-80
2021/04/11 09:06:45;;;;;;;6.25;4.55;;;;;;;-143.98;100.00;68091.63;5094973;28;20249;-81
2021/04/11 09:09:42;;;;;;;11.32;4.57;;;;;;;-143.98;100.00;68091.63;5096173;28;20048;-82
2021/04/11 09:12:27;;;;;;;7.88;5.40;;;;;;;-143.98;100.00;68091.63;5093862;28;20047;-81
2021/04/11 09:14:59;;;;;;;7.90;4.90;;;;;;;-143.98;100.00;68091.63;5093631;28;20060;-81
2021/04/11 09:17:43;;;;;;;8.38;5.50;;;;;;;-143.98;100.00;68091.63;5097565;28;20351;-82
2021/04/11 09:20:34;;;;;;;7.07;4.55;;;;;;;-143.98;100.00;68091.63;5093117;28;20056;-81
2021/04/11 09:23:20;;;;;;;7.10;5.13;;;;;;;-143.98;100.00;68091.63;5092956;28;20143;-81
2021/04/11 09:25:55;;;;;;;7.47;4.32;;;;;;;-143.98;100.00;68091.63;5109356;28;20063;-84
2021/04/11 09:28:48;;;;;;;7.70;5.15;;;;;;;-143.98;100.00;68091.63;5098241;28;20052;-84
2021/04/11 09:31:28;;;;;;;8.48;5.78;;;;;;;-143.98;100.00;68091.63;5097164;28;20141;-83
2021/04/11 09:33:59;;;;;;;9.60;5.15;;;;;;;-143.98;100.00;68091.63;5097934;28;20248;-83
2021/04/11 09:36:40;;;;;;;7.70;5.10;;;;;;;-143.98;100.00;68091.63;5123391;28;20055;-84
2021/04/11 09:39:22;;;;;;;9.02;5.35;;;;;;;-143.98;100.00;68091.63;5109557;28;20126;-83
2021/04/11 09:42:04;;;;;;;8.05;5.22;;;;;;;-143.98;100.00;68091.63;5109543;28;20083;-84
2021/04/11 09:44:55;;;;;;;8.77;6.10;;;;;;;-143.98;100.00;68091.63;5107937;28;20063;-84
2021/04/11 09:47:46;;;;;;;8.02;5.80;;;;;;;-143.98;100.00;68091.63;5116428;28;20377;-83
2021/04/11 09:50:14;;;;;;;8.43;6.13;;;;;;;-143.98;100.00;68091.63;5098162;28;20315;-82
2021/04/11 09:53:08;;;;;;;8.45;5.82;;;;;;;-143.98;100.00;68091.63;5096787;28;20078;-84
2021/04/11 09:56:09;;;;;;;9.55;6.45;;;;;;;-143.98;100.00;68091.63;5080201;28;20510;-83
2021/04/11 09:58:56;;;;;;;7.30;6.13;;;;;;;-143.98;100.00;68091.63;5098766;28;20086;-82
2021/04/11 10:01:48;;;;;;;9.45;7.28;;;;;;;-143.98;100.00;68091.63;5098579;28;20098;-83
2021/04/11 10:04:36;;;;;;;12.32;7.15;;;;;;;-143.98;100.00;68091.63;5082004;28;20055;-83
2021/04/11 10:07:25;;;;;;;9.35;6.50;;;;;;;-143.98;100.00;68091.63;5096965;28;20104;-83
2021/04/11 10:10:13;;;;;;;8.32;5.22;;;;;;;-143.98;100.00;68091.63;5096810;28;20059;-82
2021/04/11 10:13:17;;;;;;;12.80;5.70;;;;;;;-143.98;100.00;68091.63;5116156;28;20059;-82
2021/04/11 10:16:06;;;;;;;6.70;4.50;;;;;;;-143.98;100.00;68091.63;5100425;28;20057;-82
2021/04/11 10:18:58;;;;;;;6.30;4.43;;;;;;;-143.98;100.00;68091.63;5116247;28;20172;-82
2021/04/11 10:21:32;;;;;;;5.93;3.47;;;;;;;-143.98;100.00;68091.63;5099304;28;20123;-82
2021/04/11 10:24:20;;;;;;;3.47;3.17;;;;;;;-143.98;100.00;68091.63;5095369;28;20056;-82
2021/04/11 10:27:29;;;;;;;4.80;3.00;;;;;;;-143.98;100.00;68091.63;5092135;28;20075;-83
2021/04/11 10:29:57;;;;;;;4.13;3.05;;;;;;;-143.98;100.00;68091.63;5097144;28;20079;-83
2021/04/11 10:32:41;;;;;;;5.57;3.58;;;;;;;-143.98;100.00;68091.63;5114194;28;20089;-83
2021/04/11 10:35:14;;;;;;;7.18;4.40;;;;;;;-143.98;100.00;68091.63;5080952;28;20060;-83
2021/04/11 10:37:52;;;;;;;5.72;5.15;;;;;;;-143.98;100.00;68091.63;5113604;28;20458;-83
2021/04/11 10:40:45;;;;;;;7.50;5.18;;;;;;;-143.98;100.00;68091.63;5095516;28;20079;-83
2021/04/11 10:43:49;;;;;;;3.40;3.05;;;;;;;-143.98;100.00;68091.63;5096064;28;20056;-81
2021/04/11 10:46:21;;;;;;;3.92;2.13;;;;;;;-143.98;100.00;68091.63;5094898;28;20051;-84
2021/04/11 10:49:16;;;;;;;3.25;2.45;;;;;;;-143.98;100.00;68091.63;5093855;28;20113;-83
2021/04/11 10:52:08;;;;;;;3.03;2.33;;;;;;;-143.98;100.00;68091.63;5098410;28;20116;-83
2021/04/11 10:54:46;;;;;;;3.67;1.98;;;;;;;-143.98;100.00;68091.63;5122160;28;20055;-82
2021/04/11 10:57:36;;;;;;;1.58;1.38;;;;;;;-143.98;100.00;68091.63;5108195;28;20255;-82
2021/04/11 11:00:08;;;;;;;1.70;1.10;;;;;;;-143.98;100.00;68091.63;5097387;28;20068;-83
2021/04/11 11:03:19;;;;;;;3.22;1.17;;;;;;;-143.98;100.00;68091.63;5111438;28;20518;-83
2021/04/11 11:06:18;;;;;;;1.88;1.00;;;;;;;-143.98;100.00;68091.63;5114926;28;20061;-82
2021/04/11 11:09:17;;;;;;;1.42;1.08;;;;;;;-143.98;100.00;68091.63;5125688;28;20048;-83
2021/04/11 11:12:15;;;;;;;2.80;1.08;;;;;;;-143.98;100.00;68091.63;5096902;28;20125;-82
2021/04/11 11:15:03;;;;;;;3.30;1.00;;;;;;;-143.98;100.00;68091.63;5078688;28;20059;-83
2021/04/11 11:18:07;;;;;;;1.35;1.08;;;;;;;-143.98;100.00;68091.63;5095701;28;20048;-83
2021/04/11 11:21:11;;;;;;;2.10;1.00;;;;;;;-143.98;100.00;68091.63;5101123;28;20052;-82
2021/04/11 11:23:55;;;;;;;2.00;0.80;;;;;;;-143.98;100.00;68091.63;5099659;28;20056;-82
2021/04/11 11:26:50;;;;;;;1.00;0.82;;;;;;;-143.98;100.00;68091.63;5076509;28;20060;-83
2021/04/11 11:29:49;;;;;;;1.25;0.93;;;;;;;-143.98;100.00;68091.63;5077193;28;20049;-83
2021/04/11 11:32:26;;;;;;;3.17;0.60;;;;;;;-143.98;100.00;68091.63;5061341;28;20063;-82
2021/04/11 11:35:00;;;;;;;1.63;0.77;;;;;;;-143.98;100.00;68091.63;5059908;28;20099;-82
2021/04/11 11:38:05;;;;;;;1.38;0.70;;;;;;;-143.98;100.00;68091.63;5065774;28;20071;-82
2021/04/11 11:40:58;;;;;;;1.85;0.70;;;;;;;-143.98;100.00;68091.63;5087139;28;20204;-83
2021/04/11 11:43:28;;;;;;;2.40;0.70;;;;;;;-143.98;100.00;68091.63;5088867;28;20110;-84
2021/04/11 11:46:16;;;;;;;1.00;0.90;;;;;;;-143.98;100.00;68091.63;5090468;28;20105;-83
2021/04/11 11:48:55;;;;;;;1.45;0.70;;;;;;;-143.98;100.00;68091.63;5091885;28;20112;-82
2021/04/11 11:51:52;;;;;;;0.73;0.70;;;;;;;-143.98;100.00;68091.63;5070526;28;20063;-83
2021/04/11 11:54:46;;;;;;;1.98;0.85;;;;;;;-143.98;100.00;68091.63;5081837;28;20448;-83
2021/04/11 11:57:42;;;;;;;1.75;0.50;;;;;;;-143.98;100.00;68091.63;5060445;28;20269;-82
2021/04/11 12:00:30;;;;;;;5.53;1.55;;;;;;;-143.98;100.00;68091.63;5042968;28;20494;-82
2021/04/11 12:03:26;;;;;;;3.72;1.48;;;;;;;-143.98;100.00;68091.63;5059764;28;20416;-82
2021/04/11 12:06:04;;;;;;;1.27;0.70;;;;;;;-143.98;100.00;68091.63;5081113;28;20049;-82
2021/04/11 12:08:49;;;;;;;2.20;0.65;;;;;;;-143.98;100.00;68091.63;5081308;28;20243;-83
2021/04/11 12:11:31;;;;;;;8.30;1.10;;;;;;;-143.98;100.00;68091.63;5083150;28;20079;-83
2021/04/11 12:14:01;;;;;;;8.13;1.00;;;;;;;-143.98;100.00;68091.63;5082047;28;20072;-83
2021/04/11 12:16:50;;;;;;;1.80;0.95;;;;;;;-143.98;100.00;68091.63;5078045;28;20348;-83
2021/04/11 12:19:34;;;;;;;2.83;1.17;;;;;;;-143.98;100.00;68091.63;5063122;28;20491;-82
2021/04/11 12:22:11;;;;;;;1.88;0.90;;;;;;;-143.98;100.00;68091.63;5075125;28;20274;-82